Morgenster — PHMY — position and weather

sailwx.info

Track history (hours):
 
Tides and Currents Weather Stations Pressure Air Temp Water Temp Dewpoint Dewpoint Depression Visibility Wind Speed Wind Dir Waves Ship Positions

Morgenster

Last reported at 2020-Jan-26 14:22 UTC. Time now 2020-Jan-28 20:46 UTC.
Position N 28°10' W 016°23'.

Length 38 m; draft 2.4 m.

Type: Sailing vessel. MMSI: 245136000.

Date/timePositionNaut miles runAvg speedWind from/ knotsBaromVisibWave heightAir tempDewpointWater temp
2020-Jan-26 14:22N 28°10' W 016°23'3 3.9
2020-Jan-26 13:38N 28°12' W 016°21'8 4.9
2020-Jan-26 12:00N 28°19' W 016°17'2 4.8
2020-Jan-26 11:30N 28°21' W 016°16'2 4.0
2020-Jan-26 11:00N 28°23' W 016°16'3 2.6
2020-Jan-26 10:00N 28°26' W 016°15'2 4.2
2020-Jan-26 09:30N 28°28' W 016°15'0 0.0
2020-Jan-26 05:28N 28°28' W 016°15'0 0.0
2020-Jan-26 01:28N 28°28' W 016°15'0 0.0
2020-Jan-26 00:58N 28°28' W 016°15'0 0.0
2020-Jan-25 22:28N 28°28' W 016°15'0 0.0
2020-Jan-25 18:28N 28°28' W 016°15'0 0.0
2020-Jan-25 17:58N 28°28' W 016°15'0 0.0
2020-Jan-25 17:25N 28°28' W 016°15'0 0.0
2020-Jan-25 15:58N 28°28' W 016°15'0 0.0
2020-Jan-25 14:58N 28°28' W 016°15'0 0.0
2020-Jan-25 13:28N 28°28' W 016°15'0 0.0
2020-Jan-25 12:28N 28°28' W 016°15'0 0.0
2020-Jan-25 11:55N 28°28' W 016°15'0 0.0
2020-Jan-25 11:28N 28°28' W 016°15'0 0.0
2020-Jan-25 07:58N 28°28' W 016°15'0 0.0
2020-Jan-25 07:28N 28°28' W 016°15'0 0.0
2020-Jan-25 03:28N 28°28' W 016°15'0 0.0
2020-Jan-25 00:58N 28°28' W 016°15'0 0.0
2020-Jan-25 00:28N 28°28' W 016°15'0 0.0
2020-Jan-24 22:58N 28°28' W 016°15'0 0.0
2020-Jan-24 20:25N 28°28' W 016°15'0 0.0
2020-Jan-24 19:58N 28°28' W 016°15'0 0.0
2020-Jan-24 19:28N 28°28' W 016°15'0 0.0
2020-Jan-24 15:58N 28°28' W 016°15'0 0.0
2020-Jan-24 14:58N 28°28' W 016°15'0 0.0
2020-Jan-24 13:58N 28°28' W 016°15'0 0.0
2020-Jan-24 11:58N 28°28' W 016°15'0 0.0
2020-Jan-24 10:58N 28°28' W 016°15'0 0.0
2020-Jan-24 10:28N 28°28' W 016°15'0 0.0
2020-Jan-24 09:58N 28°28' W 016°15'0 0.0
2020-Jan-24 07:28N 28°28' W 016°15'0 0.0
2020-Jan-24 06:58N 28°28' W 016°15'0 0.0
2020-Jan-24 03:28N 28°28' W 016°15'0 0.0
2020-Jan-24 02:28N 28°28' W 016°15'0 0.0
2020-Jan-24 00:28N 28°28' W 016°15'0 0.0
2020-Jan-23 23:28N 28°28' W 016°15'0 0.0
2020-Jan-23 21:58N 28°28' W 016°15'10 1.8
2020-Jan-23 16:09N 28°18' W 016°19'  
2020-Jan-19 19:00N 29°03' W 016°43'4 7.7
2020-Jan-19 18:28N 29°01' W 016°38'15 7.7
2020-Jan-19 16:30N 28°52' W 016°25'24 6.9
2020-Jan-19 13:00N 28°35' W 016°06'8 3.8
2020-Jan-19 11:01N 28°28' W 016°11'2 4.4
2020-Jan-19 10:30N 28°27' W 016°13'2 3.2
2020-Jan-19 10:01N 28°28' W 016°15'0 0.1
2020-Jan-19 08:30N 28°28' W 016°15'0 0.0
2020-Jan-19 06:30N 28°28' W 016°15'0 0.0
2020-Jan-19 04:30N 28°28' W 016°15'0 0.0
2020-Jan-19 03:30N 28°28' W 016°15'0 0.0
2020-Jan-19 01:00N 28°28' W 016°15'0 0.0
2020-Jan-19 00:30N 28°28' W 016°15'0 0.0
2020-Jan-18 22:00N 28°28' W 016°15'0 0.0
2020-Jan-18 21:30N 28°28' W 016°15'0 0.0
2020-Jan-18 20:30N 28°28' W 016°15'0 0.0
2020-Jan-18 19:30N 28°28' W 016°15'0 0.0
2020-Jan-18 18:00N 28°28' W 016°15'0 0.0
2020-Jan-18 17:30N 28°28' W 016°15'0 0.0
2020-Jan-18 16:30N 28°28' W 016°15'0 0.0
2020-Jan-18 15:30N 28°28' W 016°15'0 0.0
2020-Jan-18 15:00N 28°28' W 016°15'0 0.0
2020-Jan-18 13:30N 28°28' W 016°15'0 0.0
2020-Jan-18 10:30N 28°28' W 016°15'0 0.0
2020-Jan-18 10:00N 28°28' W 016°15'0 0.0
2020-Jan-18 06:30N 28°28' W 016°15'0 0.0
2020-Jan-18 06:00N 28°28' W 016°15'0 0.0
2020-Jan-18 04:00N 28°28' W 016°15'0 0.0
2020-Jan-18 02:00N 28°28' W 016°15'0 0.0
2020-Jan-18 01:00N 28°28' W 016°15'0 0.0
2020-Jan-18 00:00N 28°28' W 016°15'0 0.0
2020-Jan-17 20:00N 28°28' W 016°15'0 0.0
2020-Jan-17 18:30N 28°28' W 016°15'0 0.0
2020-Jan-17 17:30N 28°28' W 016°15'0 0.0
2020-Jan-17 16:30N 28°28' W 016°15'0 0.0
2020-Jan-17 15:00N 28°28' W 016°15'0 0.0
2020-Jan-17 11:30N 28°28' W 016°15'0 0.0
2020-Jan-17 08:30N 28°28' W 016°15'0 0.0
2020-Jan-17 06:57N 28°28' W 016°15'0 0.0
2020-Jan-17 05:00N 28°28' W 016°15'0 0.0
2020-Jan-17 04:30N 28°28' W 016°15'0 0.0
2020-Jan-17 04:00N 28°28' W 016°15'0 0.0
2020-Jan-17 02:30N 28°28' W 016°15'0 0.0
2020-Jan-17 00:30N 28°28' W 016°15'0 0.0
2020-Jan-16 17:30N 28°28' W 016°15'0 0.0
2020-Jan-16 17:00N 28°28' W 016°15'  
Track history (hours):
 
Tides and Currents Weather Stations Pressure Air Temp Water Temp Dewpoint Dewpoint Depression Visibility Wind Speed Wind Dir Waves Ship Positions

Morgenster

Last reported at 2020-Jan-26 14:22 UTC. Time now 2020-Jan-28 20:46 UTC.
Position N 28°10' W 016°23'.

Length 38 m; draft 2.4 m.

Type: Sailing vessel. MMSI: 245136000.

Date/timePositionNaut miles runAvg speedWind from/ knotsBaromVisibWave heightAir tempDewpointWater temp
2020-Jan-26 14:22N 28°10' W 016°23'3 3.9
2020-Jan-26 13:38N 28°12' W 016°21'8 4.9
2020-Jan-26 12:00N 28°19' W 016°17'2 4.8
2020-Jan-26 11:30N 28°21' W 016°16'2 4.0
2020-Jan-26 11:00N 28°23' W 016°16'3 2.6
2020-Jan-26 10:00N 28°26' W 016°15'2 4.2
2020-Jan-26 09:30N 28°28' W 016°15'0 0.0
2020-Jan-26 05:28N 28°28' W 016°15'0 0.0
2020-Jan-26 01:28N 28°28' W 016°15'0 0.0
2020-Jan-26 00:58N 28°28' W 016°15'0 0.0
2020-Jan-25 22:28N 28°28' W 016°15'0 0.0
2020-Jan-25 18:28N 28°28' W 016°15'0 0.0
2020-Jan-25 17:58N 28°28' W 016°15'0 0.0
2020-Jan-25 17:25N 28°28' W 016°15'0 0.0
2020-Jan-25 15:58N 28°28' W 016°15'0 0.0
2020-Jan-25 14:58N 28°28' W 016°15'0 0.0
2020-Jan-25 13:28N 28°28' W 016°15'0 0.0
2020-Jan-25 12:28N 28°28' W 016°15'0 0.0
2020-Jan-25 11:55N 28°28' W 016°15'0 0.0
2020-Jan-25 11:28N 28°28' W 016°15'0 0.0
2020-Jan-25 07:58N 28°28' W 016°15'0 0.0
2020-Jan-25 07:28N 28°28' W 016°15'0 0.0
2020-Jan-25 03:28N 28°28' W 016°15'0 0.0
2020-Jan-25 00:58N 28°28' W 016°15'0 0.0
2020-Jan-25 00:28N 28°28' W 016°15'0 0.0
2020-Jan-24 22:58N 28°28' W 016°15'0 0.0
2020-Jan-24 20:25N 28°28' W 016°15'0 0.0
2020-Jan-24 19:58N 28°28' W 016°15'0 0.0
2020-Jan-24 19:28N 28°28' W 016°15'0 0.0
2020-Jan-24 15:58N 28°28' W 016°15'0 0.0
2020-Jan-24 14:58N 28°28' W 016°15'0 0.0
2020-Jan-24 13:58N 28°28' W 016°15'0 0.0
2020-Jan-24 11:58N 28°28' W 016°15'0 0.0
2020-Jan-24 10:58N 28°28' W 016°15'0 0.0
2020-Jan-24 10:28N 28°28' W 016°15'0 0.0
2020-Jan-24 09:58N 28°28' W 016°15'0 0.0
2020-Jan-24 07:28N 28°28' W 016°15'0 0.0
2020-Jan-24 06:58N 28°28' W 016°15'0 0.0
2020-Jan-24 03:28N 28°28' W 016°15'0 0.0
2020-Jan-24 02:28N 28°28' W 016°15'0 0.0
2020-Jan-24 00:28N 28°28' W 016°15'0 0.0
2020-Jan-23 23:28N 28°28' W 016°15'0 0.0
2020-Jan-23 21:58N 28°28' W 016°15'10 1.8
2020-Jan-23 16:09N 28°18' W 016°19'  
2020-Jan-19 19:00N 29°03' W 016°43'4 7.7
2020-Jan-19 18:28N 29°01' W 016°38'15 7.7
2020-Jan-19 16:30N 28°52' W 016°25'24 6.9
2020-Jan-19 13:00N 28°35' W 016°06'8 3.8
2020-Jan-19 11:01N 28°28' W 016°11'2 4.4
2020-Jan-19 10:30N 28°27' W 016°13'2 3.2
2020-Jan-19 10:01N 28°28' W 016°15'0 0.1
2020-Jan-19 08:30N 28°28' W 016°15'0 0.0
2020-Jan-19 06:30N 28°28' W 016°15'0 0.0
2020-Jan-19 04:30N 28°28' W 016°15'0 0.0
2020-Jan-19 03:30N 28°28' W 016°15'0 0.0
2020-Jan-19 01:00N 28°28' W 016°15'0 0.0
2020-Jan-19 00:30N 28°28' W 016°15'0 0.0
2020-Jan-18 22:00N 28°28' W 016°15'0 0.0
2020-Jan-18 21:30N 28°28' W 016°15'0 0.0
2020-Jan-18 20:30N 28°28' W 016°15'0 0.0
2020-Jan-18 19:30N 28°28' W 016°15'0 0.0
2020-Jan-18 18:00N 28°28' W 016°15'0 0.0
2020-Jan-18 17:30N 28°28' W 016°15'0 0.0
2020-Jan-18 16:30N 28°28' W 016°15'0 0.0
2020-Jan-18 15:30N 28°28' W 016°15'0 0.0
2020-Jan-18 15:00N 28°28' W 016°15'0 0.0
2020-Jan-18 13:30N 28°28' W 016°15'0 0.0
2020-Jan-18 10:30N 28°28' W 016°15'0 0.0
2020-Jan-18 10:00N 28°28' W 016°15'0 0.0
2020-Jan-18 06:30N 28°28' W 016°15'0 0.0
2020-Jan-18 06:00N 28°28' W 016°15'0 0.0
2020-Jan-18 04:00N 28°28' W 016°15'0 0.0
2020-Jan-18 02:00N 28°28' W 016°15'0 0.0
2020-Jan-18 01:00N 28°28' W 016°15'0 0.0
2020-Jan-18 00:00N 28°28' W 016°15'0 0.0
2020-Jan-17 20:00N 28°28' W 016°15'0 0.0
2020-Jan-17 18:30N 28°28' W 016°15'0 0.0
2020-Jan-17 17:30N 28°28' W 016°15'0 0.0
2020-Jan-17 16:30N 28°28' W 016°15'0 0.0
2020-Jan-17 15:00N 28°28' W 016°15'0 0.0
2020-Jan-17 11:30N 28°28' W 016°15'0 0.0
2020-Jan-17 08:30N 28°28' W 016°15'0 0.0
2020-Jan-17 06:57N 28°28' W 016°15'0 0.0
2020-Jan-17 05:00N 28°28' W 016°15'0 0.0
2020-Jan-17 04:30N 28°28' W 016°15'0 0.0
2020-Jan-17 04:00N 28°28' W 016°15'0 0.0
2020-Jan-17 02:30N 28°28' W 016°15'0 0.0
2020-Jan-17 00:30N 28°28' W 016°15'0 0.0
2020-Jan-16 17:30N 28°28' W 016°15'0 0.0
2020-Jan-16 17:00N 28°28' W 016°15'  

Dump ship's entire track history